Time;durP1;ratioP1;P1;durP2;ratioP2;P2;SDS_P1;SDS_P2;PMS_P1;PMS_P2;Temp;Humidity;BMP_temperature;BMP_pressure;BME280_temperature;BME280_humidity;BME280_pressure;Samples;Min_cycle;Max_cycle;Signal;HPM_P1;HPM_P2
2021/01/08 00:06:47;;;;;;;44.77;19.90;;;;;;;0.61;100.00;99854.38;10117600;87;21236;-76
2021/01/08 00:21:52;;;;;;;41.77;18.15;;;;;;;0.54;100.00;99859.48;10037030;88;21286;-77
2021/01/08 00:36:58;;;;;;;47.33;21.25;;;;;;;0.53;100.00;99861.67;10245461;87;80628;-76
2021/01/08 00:52:04;;;;;;;45.15;20.85;;;;;;;0.53;100.00;99865.55;10241737;86;614826;-77
2021/01/08 01:07:08;;;;;;;45.17;20.08;;;;;;;0.59;100.00;99858.31;10047724;87;21150;-77
2021/01/08 01:22:14;;;;;;;45.50;19.82;;;;;;;0.55;100.00;99866.31;9891882;90;21357;-77
2021/01/08 01:37:18;;;;;;;43.38;19.87;;;;;;;0.53;100.00;99868.13;9598879;92;21074;-77
2021/01/08 01:52:22;;;;;;;53.35;23.47;;;;;;;0.56;100.00;99863.65;9632373;90;21613;-77
2021/01/08 02:07:31;;;;;;;50.12;21.37;;;;;;;0.55;100.00;99865.84;9740411;91;21149;-76
2021/01/08 02:22:43;;;;;;;52.23;24.05;;;;;;;0.69;100.00;99865.56;9656467;91;21173;-76
2021/01/08 02:37:48;;;;;;;49.40;23.35;;;;;;;0.80;100.00;99860.19;9741541;86;21049;-77
2021/01/08 02:52:58;;;;;;;71.10;31.27;;;;;;;0.78;100.00;99856.87;10276025;85;21216;-76
2021/01/08 03:08:04;;;;;;;56.83;25.02;;;;;;;0.83;100.00;99848.42;9998136;88;21087;-76
2021/01/08 03:23:09;;;;;;;58.53;25.93;;;;;;;0.85;100.00;99852.69;10201924;86;5138685;-76
2021/01/08 03:38:13;;;;;;;57.85;25.12;;;;;;;0.89;100.00;99864.51;9741888;85;21134;-75
2021/01/08 03:53:18;;;;;;;53.35;25.20;;;;;;;0.88;100.00;99861.07;9675146;91;21110;-76
2021/01/08 04:08:22;;;;;;;48.38;22.37;;;;;;;0.79;100.00;99866.30;9651159;92;21091;-75
2021/01/08 04:23:26;;;;;;;50.92;23.35;;;;;;;0.85;100.00;99866.42;9755462;87;166787;-76
2021/01/08 04:38:31;;;;;;;53.10;24.15;;;;;;;0.86;100.00;99871.97;10192640;87;21128;-76
2021/01/08 04:53:38;;;;;;;51.88;23.85;;;;;;;0.87;100.00;99867.18;9815146;88;309473;-76
2021/01/08 05:08:42;;;;;;;;;;;;;;;0.79;100.00;99871.47;9824322;89;21925;-76
2021/01/08 05:23:48;;;;;;;84.35;34.88;;;;;;;0.88;100.00;99879.63;10176221;86;20264;-76
2021/01/08 05:38:57;;;;;;;61.92;28.80;;;;;;;0.86;100.00;99891.77;10296702;85;339020;-76
2021/01/08 05:54:03;;;;;;;63.28;28.02;;;;;;;0.86;100.00;99894.36;10268636;86;21191;-76
2021/01/08 06:09:11;;;;;;;60.35;27.20;;;;;;;0.79;100.00;99894.70;10112237;87;2522778;-76
2021/01/08 06:24:24;;;;;;;58.65;27.30;;;;;;;0.84;100.00;99904.77;10044821;88;21242;-76
2021/01/08 06:39:35;;;;;;;68.75;29.37;;;;;;;0.87;100.00;99912.81;9704062;91;21100;-75
2021/01/08 06:54:43;;;;;;;61.90;26.35;;;;;;;0.87;100.00;99921.86;9494395;91;21091;-76
2021/01/08 07:09:50;;;;;;;308.07;138.65;;;;;;;0.95;100.00;99943.80;9493239;92;21177;-76
2021/01/08 07:24:54;;;;;;;57.98;30.32;;;;;;;1.09;100.00;99968.05;9702728;89;617755;-77
2021/01/08 07:40:05;;;;;;;60.55;29.18;;;;;;;1.08;100.00;99978.86;9404266;89;21118;-76
2021/01/08 07:55:11;;;;;;;93.10;40.88;;;;;;;1.19;100.00;99999.38;9363952;88;184760;-75
2021/01/08 08:10:23;;;;;;;72.60;32.50;;;;;;;1.23;100.00;100008.63;9951591;88;253330;-76
2021/01/08 08:25:30;;;;;;;75.62;32.60;;;;;;;1.20;100.00;100016.13;9953675;88;21112;-77
2021/01/08 08:40:35;;;;;;;122.95;44.83;;;;;;;1.05;100.00;100027.27;9959096;88;21058;-77
2021/01/08 08:55:42;;;;;;;154.47;61.55;;;;;;;1.28;100.00;100024.73;9860635;88;21458;-77
2021/01/08 09:10:54;;;;;;;89.07;34.03;;;;;;;1.18;100.00;100036.50;9940786;88;21090;-77
2021/01/08 09:26:05;;;;;;;74.27;31.05;;;;;;;1.17;100.00;100039.52;9965994;88;21139;-79
2021/01/08 09:41:15;;;;;;;78.00;31.37;;;;;;;1.27;100.00;100031.67;9959445;88;21149;-86
2021/01/08 10:43:36;;;;;;;94.90;40.17;;;;;;;1.61;100.00;100012.19;10310751;83;21226;-90
2021/01/08 10:58:42;;;;;;;105.87;45.38;;;;;;;1.61;100.00;100012.19;10327336;83;21140;-87
2021/01/08 11:13:46;;;;;;;175.78;70.85;;;;;;;1.41;100.00;99999.92;10229751;85;21522;-90
2021/01/08 11:28:50;;;;;;;94.35;42.43;;;;;;;1.70;100.00;100009.09;9971957;88;21609;-81
2021/01/08 11:43:55;;;;;;;82.55;35.98;;;;;;;1.68;100.00;100007.06;9894900;89;21200;-77
2021/01/08 11:59:00;;;;;;;85.45;35.35;;;;;;;1.45;100.00;100001.41;9916782;87;22213;-81
2021/01/08 12:14:06;;;;;;;124.10;49.45;;;;;;;1.48;100.00;100011.58;9948440;87;21091;-88
2021/01/08 12:29:11;;;;;;;335.83;126.70;;;;;;;1.37;100.00;100010.49;10171134;84;21165;-85
2021/01/08 12:44:16;;;;;;;112.65;47.53;;;;;;;1.36;100.00;100004.50;10397844;84;21103;-80
2021/01/08 12:59:20;;;;;;;94.67;39.27;;;;;;;1.41;100.00;100005.09;10401370;83;21168;-85
2021/01/08 13:14:24;;;;;;;100.35;43.83;;;;;;;1.39;100.00;100025.00;10497176;82;21168;-88
2021/01/08 13:29:28;;;;;;;154.50;60.67;;;;;;;1.42;100.00;100039.05;10111049;87;21059;-92
2021/01/08 13:44:35;;;;;;;116.10;56.45;;;;;;;1.15;100.00;100036.20;10128238;85;21185;-82
2021/01/08 13:59:41;;;;;;;111.77;46.02;;;;;;;1.31;100.00;100054.31;9830296;87;21170;-87
2021/01/08 14:14:45;;;;;;;107.92;45.28;;;;;;;1.14;100.00;100057.78;10265262;84;21169;-83
2021/01/08 14:29:51;;;;;;;205.95;79.82;;;;;;;1.16;100.00;100070.15;9821826;88;21095;-83
2021/01/08 14:44:56;;;;;;;126.60;46.50;;;;;;;1.13;100.00;100077.60;9883885;88;21075;-79
2021/01/08 15:00:01;;;;;;;96.92;41.37;;;;;;;1.08;100.00;100087.38;9913271;87;21174;-83
2021/01/08 15:15:11;;;;;;;95.45;39.50;;;;;;;0.91;100.00;100095.13;9976915;85;21678;-83
2021/01/08 15:30:21;;;;;;;99.62;42.00;;;;;;;0.97;100.00;100107.27;10251600;85;21701;-84
2021/01/08 15:45:25;;;;;;;94.62;40.30;;;;;;;0.99;100.00;100105.93;10240179;85;21191;-79
2021/01/08 16:00:30;;;;;;;102.07;42.78;;;;;;;1.02;100.00;100108.34;10255562;84;21299;-78
2021/01/08 16:15:36;;;;;;;91.87;39.13;;;;;;;0.98;100.00;100115.88;10251730;84;21121;-79
2021/01/08 16:30:40;;;;;;;126.00;52.75;;;;;;;0.95;100.00;100138.83;10385880;84;21341;-78
2021/01/08 16:45:45;;;;;;;159.48;65.22;;;;;;;0.75;100.00;100151.88;10308891;85;21252;-78
2021/01/08 17:00:51;;;;;;;431.50;140.40;;;;;;;0.65;100.00;100155.39;10222049;82;21933;-76
2021/01/08 17:15:56;;;;;;;100.12;40.33;;;;;;;0.70;100.00;100160.31;10412251;82;21194;-78
2021/01/08 17:31:01;;;;;;;142.72;55.52;;;;;;;0.90;100.00;100167.06;10256251;85;21252;-79
2021/01/08 17:46:05;;;;;;;177.95;68.05;;;;;;;0.88;100.00;100160.69;10257474;85;21974;-78
2021/01/08 18:01:14;;;;;;;158.30;51.47;;;;;;;0.88;100.00;100162.45;10262721;85;21934;-77
2021/01/08 18:16:18;;;;;;;104.55;40.55;;;;;;;0.82;100.00;100172.64;10303605;84;21139;-76
2021/01/08 18:31:23;;;;;;;77.10;32.53;;;;;;;0.89;100.00;100180.92;10289249;85;21094;-76
2021/01/08 18:46:28;;;;;;;882.95;291.93;;;;;;;0.72;100.00;100179.98;10295405;85;21524;-78
2021/01/08 19:01:33;;;;;;;116.35;44.53;;;;;;;0.71;100.00;100191.22;10299410;85;21122;-78
2021/01/08 19:16:37;;;;;;;148.10;58.80;;;;;;;0.87;100.00;100198.23;10278801;85;21968;-77
2021/01/08 19:31:42;;;;;;;105.52;42.08;;;;;;;0.93;100.00;100202.63;10259005;86;21690;-78
2021/01/08 19:46:47;;;;;;;165.37;53.87;;;;;;;0.92;100.00;100205.30;10286606;85;21184;-77
2021/01/08 20:01:52;;;;;;;186.57;65.10;;;;;;;1.11;100.00;100215.11;10318593;85;21105;-77
2021/01/08 20:16:57;;;;;;;184.82;61.58;;;;;;;1.15;100.00;100220.50;10259352;86;21145;-78
2021/01/08 20:32:01;;;;;;;91.90;36.25;;;;;;;1.08;100.00;100231.21;10210009;85;21094;-76
2021/01/08 20:47:07;;;;;;;74.77;30.97;;;;;;;1.03;100.00;100236.63;10174037;86;21881;-77
2021/01/08 21:02:12;;;;;;;80.10;32.37;;;;;;;0.95;100.00;100250.34;10215700;86;21397;-78
2021/01/08 21:17:16;;;;;;;83.92;33.23;;;;;;;0.91;100.00;100247.53;10158631;86;21125;-77
2021/01/08 21:32:21;;;;;;;108.70;44.15;;;;;;;0.78;100.00;100254.59;10116117;86;21555;-77
2021/01/08 21:47:28;;;;;;;80.03;32.05;;;;;;;0.95;100.00;100264.12;10193240;84;21216;-76
2021/01/08 22:02:34;;;;;;;90.72;36.50;;;;;;;0.86;100.00;100267.14;10208231;86;21062;-76
2021/01/08 22:17:38;;;;;;;102.32;40.52;;;;;;;0.82;100.00;100270.32;10286716;83;21268;-76
2021/01/08 22:32:45;;;;;;;138.40;48.50;;;;;;;0.75;100.00;100274.55;10290648;85;21118;-76
2021/01/08 22:47:49;;;;;;;117.67;44.03;;;;;;;0.87;100.00;100273.13;10265708;84;21125;-76
2021/01/08 23:02:54;;;;;;;98.35;37.67;;;;;;;0.90;100.00;100269.95;10232401;85;21098;-77
2021/01/08 23:17:59;;;;;;;106.15;39.33;;;;;;;0.77;100.00;100272.28;10374871;84;21083;-76
2021/01/08 23:33:04;;;;;;;107.12;41.00;;;;;;;0.86;100.00;100286.95;10375746;85;21067;-76
2021/01/08 23:48:11;;;;;;;101.83;41.60;;;;;;;0.73;100.00;100282.38;10325129;85;21145;-76
